createdAt,value
2018-06-02T00:01:01.436Z,6.97
2018-06-02T00:03:29.593Z,11.43
2018-06-02T00:05:58.074Z,8.77
2018-06-02T00:08:26.128Z,8.07
2018-06-02T00:10:53.951Z,8.13
2018-06-02T00:13:22.049Z,12.03
2018-06-02T00:15:50.333Z,12.80
2018-06-02T00:18:18.430Z,11.00
2018-06-02T00:20:46.524Z,7.73
2018-06-02T00:23:14.702Z,7.63
2018-06-02T00:25:42.848Z,8.90
2018-06-02T00:28:11.128Z,9.53
2018-06-02T00:30:39.192Z,10.80
2018-06-02T00:33:07.013Z,7.23
2018-06-02T00:35:34.954Z,7.60
2018-06-02T00:38:03.204Z,6.67
2018-06-02T00:40:31.110Z,6.27
2018-06-02T00:42:59.178Z,5.93
2018-06-02T00:45:27.270Z,9.53
2018-06-02T00:47:55.442Z,5.07
2018-06-02T00:50:23.628Z,5.83
2018-06-02T00:52:51.834Z,9.43
2018-06-02T00:55:19.932Z,11.67
2018-06-02T00:57:47.974Z,10.20
2018-06-02T01:00:16.396Z,14.47
2018-06-02T01:02:44.428Z,8.70
2018-06-02T01:05:12.295Z,8.47
2018-06-02T01:07:40.677Z,8.77
2018-06-02T01:10:08.742Z,10.40
2018-06-02T01:12:36.658Z,17.00
2018-06-02T01:15:04.806Z,11.23
2018-06-02T01:17:32.851Z,8.53
2018-06-02T01:20:00.721Z,10.40
2018-06-02T01:22:29.153Z,8.10
2018-06-02T01:24:57.270Z,10.53
2018-06-02T01:27:25.349Z,13.50
2018-06-02T01:29:53.515Z,11.40
2018-06-02T01:32:21.415Z,8.50
2018-06-02T01:34:49.299Z,8.97
2018-06-02T01:37:17.688Z,11.47
2018-06-02T01:39:46.108Z,7.07
2018-06-02T01:42:14.006Z,7.07
2018-06-02T01:44:42.150Z,9.17
2018-06-02T01:47:10.223Z,8.67
2018-06-02T01:49:38.037Z,6.07
2018-06-02T01:52:06.263Z,7.40
2018-06-02T01:54:34.436Z,6.23
2018-06-02T01:57:02.344Z,6.37
2018-06-02T01:59:30.583Z,6.83
2018-06-02T02:01:58.700Z,6.40
2018-06-02T02:04:26.711Z,5.80
2018-06-02T02:06:54.767Z,7.70
2018-06-02T02:09:22.930Z,6.23
2018-06-02T02:11:50.730Z,6.30
2018-06-02T02:14:18.726Z,8.50
2018-06-02T02:16:46.797Z,9.03
2018-06-02T02:19:14.636Z,11.90
2018-06-02T02:21:42.701Z,11.60
2018-06-02T02:24:11.416Z,11.53
2018-06-02T02:26:39.455Z,11.53
2018-06-02T02:29:08.050Z,11.90
2018-06-02T02:31:36.320Z,13.50
2018-06-02T02:34:04.186Z,10.07
2018-06-02T02:36:34.411Z,9.03
2018-06-02T02:39:02.487Z,11.07
2018-06-02T02:41:31.373Z,9.63
2018-06-02T02:43:59.825Z,10.90
2018-06-02T02:46:27.671Z,14.00
2018-06-02T02:48:55.481Z,10.20
2018-06-02T02:51:23.859Z,10.17
2018-06-02T02:53:51.704Z,11.07
2018-06-02T02:56:19.601Z,10.03
2018-06-02T02:58:49.097Z,7.90
2018-06-02T03:01:17.732Z,11.50
2018-06-02T03:03:45.544Z,7.10
2018-06-02T03:06:13.720Z,8.27
2018-06-02T03:08:42.454Z,9.40
2018-06-02T03:11:10.682Z,8.23
2018-06-02T03:13:38.911Z,7.60
2018-06-02T03:16:06.925Z,6.97
2018-06-02T03:18:35.106Z,5.40
2018-06-02T03:21:03.208Z,6.73
2018-06-02T03:23:31.165Z,6.17
2018-06-02T03:25:59.443Z,5.87
2018-06-02T03:28:27.592Z,6.90
2018-06-02T03:30:55.768Z,9.03
2018-06-02T03:33:23.861Z,4.43
2018-06-02T03:35:52.012Z,6.67
2018-06-02T03:38:20.083Z,6.57
2018-06-02T03:40:48.368Z,5.27
2018-06-02T03:43:16.375Z,6.47
2018-06-02T03:45:44.275Z,3.80
2018-06-02T03:48:12.388Z,5.10
2018-06-02T03:50:40.285Z,8.83
2018-06-02T03:53:08.655Z,4.60
2018-06-02T03:55:36.787Z,5.53
2018-06-02T03:58:04.755Z,5.70
2018-06-02T04:00:32.676Z,4.00
2018-06-02T04:03:00.769Z,3.50
2018-06-02T04:05:29.125Z,5.40
2018-06-02T04:07:57.038Z,6.50
2018-06-02T04:10:25.323Z,5.07
2018-06-02T04:12:53.279Z,3.37
2018-06-02T04:15:21.303Z,6.53
2018-06-02T04:17:49.468Z,3.60
2018-06-02T04:26:03.587Z,5.20
2018-06-02T04:28:31.679Z,6.03
2018-06-02T04:30:59.859Z,4.60
2018-06-02T04:33:28.241Z,4.43
2018-06-02T04:35:56.447Z,3.90
2018-06-02T04:38:24.475Z,4.30
2018-06-02T04:40:52.900Z,4.73
2018-06-02T04:43:20.662Z,3.73
2018-06-02T04:45:48.591Z,3.73
2018-06-02T04:48:16.953Z,4.90
2018-06-02T04:50:44.770Z,4.63
2018-06-02T04:53:12.945Z,6.17
2018-06-02T04:55:41.360Z,5.57
2018-06-02T04:58:09.149Z,4.63
2018-06-02T05:00:37.015Z,5.93
2018-06-02T05:03:05.322Z,5.20
2018-06-02T05:05:33.259Z,6.17
2018-06-02T05:08:01.220Z,3.40
2018-06-02T05:10:29.614Z,4.43
2018-06-02T05:12:57.448Z,4.40
2018-06-02T05:15:25.646Z,3.50
2018-06-02T05:17:54.153Z,5.13
2018-06-02T05:20:22.461Z,3.93
2018-06-02T05:22:50.365Z,4.73
2018-06-02T05:25:18.755Z,6.93
2018-06-02T05:27:46.600Z,3.43
2018-06-02T05:30:14.608Z,5.37
2018-06-02T05:32:42.822Z,4.20
2018-06-02T05:35:10.795Z,6.53
2018-06-02T05:37:38.539Z,5.53
2018-06-02T05:40:06.699Z,5.20
2018-06-02T05:42:34.741Z,5.60
2018-06-02T05:45:02.494Z,3.53
2018-06-02T05:47:30.666Z,4.07
2018-06-02T05:49:58.686Z,5.57
2018-06-02T05:52:26.465Z,4.53
2018-06-02T05:54:54.602Z,3.90
2018-06-02T05:57:22.513Z,4.27
2018-06-02T05:59:50.382Z,3.70
2018-06-02T06:02:18.970Z,5.30
2018-06-02T06:04:46.861Z,5.27
2018-06-02T06:07:14.918Z,4.60
2018-06-02T06:09:43.017Z,4.40
2018-06-02T06:12:10.858Z,6.63
2018-06-02T06:14:38.761Z,7.33
2018-06-02T06:17:06.870Z,8.60
2018-06-02T06:19:34.770Z,6.47
2018-06-02T06:22:02.501Z,7.17
2018-06-02T06:24:30.671Z,4.97
2018-06-02T06:26:58.526Z,5.83
2018-06-02T06:29:26.330Z,4.87
2018-06-02T06:31:54.612Z,5.13
2018-06-02T06:34:22.847Z,7.87
2018-06-02T06:36:50.634Z,3.90
2018-06-02T06:39:19.073Z,5.27
2018-06-02T06:41:46.850Z,5.77
2018-06-02T06:44:14.884Z,4.83
2018-06-02T06:46:42.956Z,5.00
2018-06-02T06:49:10.745Z,6.97
2018-06-02T06:51:38.597Z,5.50
2018-06-02T06:54:06.863Z,3.43
2018-06-02T06:56:34.619Z,3.17
2018-06-02T06:59:02.453Z,9.27
2018-06-02T07:01:30.826Z,2.97
2018-06-02T07:03:58.605Z,4.10
2018-06-02T07:06:26.323Z,5.03
2018-06-02T07:08:54.810Z,5.50
2018-06-02T07:11:22.581Z,3.80
2018-06-02T07:13:50.642Z,4.70
2018-06-02T07:16:19.232Z,4.50
2018-06-02T07:18:47.183Z,2.47
2018-06-02T07:21:14.899Z,2.77
2018-06-02T07:23:42.927Z,4.07
2018-06-02T07:26:10.801Z,4.17
2018-06-02T07:28:38.570Z,5.80
2018-06-02T07:31:06.996Z,4.97
2018-06-02T07:33:34.833Z,2.63
2018-06-02T07:36:02.773Z,4.07
2018-06-02T07:38:31.073Z,4.90
2018-06-02T07:40:58.773Z,3.73
2018-06-02T07:43:26.720Z,5.63
2018-06-02T07:45:54.878Z,4.50
2018-06-02T07:48:22.640Z,4.70
2018-06-02T07:50:50.594Z,3.37
2018-06-02T07:53:18.874Z,3.97
2018-06-02T07:55:46.973Z,4.43
2018-06-02T07:58:14.792Z,4.23
2018-06-02T08:00:42.929Z,6.63
2018-06-02T08:03:10.740Z,6.97
2018-06-02T08:05:38.712Z,2.50
2018-06-02T08:08:07.002Z,3.50
2018-06-02T08:10:34.819Z,6.37
2018-06-02T08:13:02.583Z,5.27
2018-06-02T08:15:30.844Z,6.60
2018-06-02T08:17:58.868Z,2.90
2018-06-02T08:20:26.605Z,5.07
2018-06-02T08:22:54.811Z,4.27
2018-06-02T08:25:22.675Z,3.93
2018-06-02T08:27:50.443Z,4.17
2018-06-02T08:30:19.013Z,4.30
2018-06-02T08:32:46.752Z,4.20
2018-06-02T08:35:14.779Z,3.83
2018-06-02T08:37:43.397Z,3.97
2018-06-02T08:40:11.492Z,5.73
2018-06-02T08:42:39.410Z,5.30
2018-06-02T08:45:07.617Z,3.70
2018-06-02T08:47:35.734Z,5.30
2018-06-02T08:50:03.810Z,4.27
2018-06-02T08:52:31.729Z,6.70
2018-06-02T08:54:59.710Z,3.13
2018-06-02T08:57:27.773Z,6.27
2018-06-02T08:59:55.844Z,5.03
2018-06-02T09:02:23.848Z,2.80
2018-06-02T09:04:51.736Z,2.60
2018-06-02T09:07:19.993Z,4.10
2018-06-02T09:09:49.179Z,4.33
2018-06-02T09:12:17.215Z,5.10
2018-06-02T09:14:45.121Z,5.03
2018-06-02T09:17:12.897Z,2.83
2018-06-02T09:19:40.946Z,3.90
2018-06-02T09:22:08.893Z,2.37
2018-06-02T09:24:36.653Z,5.47
2018-06-02T09:27:04.727Z,4.53
2018-06-02T09:29:32.539Z,4.77
2018-06-02T09:32:00.320Z,4.20
2018-06-02T09:34:28.136Z,3.00
2018-06-02T09:36:56.151Z,4.27
2018-06-02T09:39:24.232Z,2.67
2018-06-02T09:41:52.394Z,2.80
2018-06-02T09:44:20.536Z,2.20
2018-06-02T09:46:48.281Z,3.03
2018-06-02T09:49:16.302Z,2.40
2018-06-02T09:51:44.171Z,4.30
2018-06-02T09:54:11.981Z,3.03
2018-06-02T09:56:39.925Z,3.57
2018-06-02T09:59:08.293Z,3.27
2018-06-02T10:01:36.166Z,2.57
2018-06-02T10:04:03.958Z,2.53
2018-06-02T10:06:32.172Z,4.27
2018-06-02T10:08:59.958Z,2.17
2018-06-02T10:11:27.921Z,3.27
2018-06-02T10:13:56.323Z,4.13
2018-06-02T10:16:24.091Z,2.53
2018-06-02T10:18:51.856Z,4.33
2018-06-02T10:21:20.132Z,2.63
2018-06-02T10:23:47.912Z,5.87
2018-06-02T10:26:15.824Z,3.90
2018-06-02T10:28:43.995Z,5.47
2018-06-02T10:31:11.798Z,3.03
2018-06-02T10:33:39.642Z,3.23
2018-06-02T10:36:08.162Z,2.53
2018-06-02T10:38:35.996Z,4.20
2018-06-02T10:41:04.284Z,1.80
2018-06-02T10:43:32.485Z,4.40
2018-06-02T10:46:00.449Z,2.53
2018-06-02T10:48:28.293Z,3.07
2018-06-02T10:50:56.310Z,2.43
2018-06-02T10:53:24.251Z,3.57
2018-06-02T10:55:52.100Z,3.27
2018-06-02T10:58:20.230Z,3.80
2018-06-02T11:00:48.401Z,3.87
2018-06-02T11:03:16.649Z,2.23
2018-06-02T11:05:44.493Z,4.40
2018-06-02T11:08:12.229Z,3.83
2018-06-02T11:10:40.336Z,4.23
2018-06-02T11:13:08.574Z,8.07
2018-06-02T11:15:36.371Z,3.03
2018-06-02T11:18:04.555Z,2.00
2018-06-02T11:20:32.537Z,1.70
2018-06-02T11:23:00.468Z,3.97
2018-06-02T11:25:28.412Z,4.03
2018-06-02T11:27:56.814Z,2.47
2018-06-02T11:30:24.590Z,3.57
2018-06-02T11:32:52.554Z,2.37
2018-06-02T11:35:20.929Z,2.47
2018-06-02T11:37:48.722Z,4.23
2018-06-02T11:40:17.070Z,2.70
2018-06-02T11:42:45.625Z,3.47
2018-06-02T11:45:13.558Z,3.53
2018-06-02T11:47:41.650Z,6.50
2018-06-02T11:50:09.980Z,2.57
2018-06-02T11:52:38.407Z,6.13
2018-06-02T11:55:06.278Z,3.03
2018-06-02T11:57:34.106Z,1.70
2018-06-02T12:00:03.408Z,2.33
2018-06-02T12:02:31.402Z,3.83
2018-06-02T12:04:59.423Z,1.70
2018-06-02T12:07:27.653Z,2.60
2018-06-02T12:09:55.445Z,3.90
2018-06-02T12:12:23.626Z,1.80
2018-06-02T12:14:52.218Z,2.80
2018-06-02T12:17:20.182Z,3.87
2018-06-02T12:19:48.590Z,2.30
2018-06-02T12:22:16.663Z,6.67
2018-06-02T12:24:44.611Z,5.93
2018-06-02T12:27:12.535Z,2.07
2018-06-02T12:29:40.726Z,3.00
2018-06-02T12:32:08.752Z,2.00
2018-06-02T12:34:36.888Z,1.50
2018-06-02T12:37:05.047Z,3.17
2018-06-02T12:39:32.828Z,4.20
2018-06-02T12:42:00.898Z,4.60
2018-06-02T12:44:29.919Z,2.57
2018-06-02T12:46:57.744Z,3.17
2018-06-02T12:49:26.548Z,1.90
2018-06-02T12:51:54.909Z,4.00
2018-06-02T12:54:22.760Z,3.40
2018-06-02T12:56:51.035Z,2.10
2018-06-02T12:59:19.441Z,2.13
2018-06-02T13:01:47.534Z,3.37
2018-06-02T13:04:16.097Z,4.17
2018-06-02T13:06:43.986Z,1.50
2018-06-02T13:09:11.906Z,2.80
2018-06-02T13:11:39.988Z,3.43
2018-06-02T13:14:08.178Z,2.97
2018-06-02T13:16:35.930Z,3.83
2018-06-02T13:19:03.988Z,2.80
2018-06-02T13:21:32.012Z,2.90
2018-06-02T13:23:59.838Z,2.10
2018-06-02T13:26:27.946Z,2.80
2018-06-02T13:28:55.965Z,2.87
2018-06-02T13:31:24.178Z,1.80
2018-06-02T13:33:52.340Z,2.97
2018-06-02T13:36:20.557Z,4.20
2018-06-02T13:38:48.478Z,1.67
2018-06-02T13:41:16.847Z,4.90
2018-06-02T13:43:46.060Z,3.63
2018-06-02T13:46:14.030Z,4.07
2018-06-02T13:48:46.838Z,2.87
2018-06-02T13:51:14.775Z,2.03
2018-06-02T13:53:42.757Z,3.87
2018-06-02T13:56:10.907Z,5.40
2018-06-02T13:58:39.854Z,4.97
2018-06-02T14:01:07.861Z,5.03
2018-06-02T14:03:36.064Z,5.03
2018-06-02T14:06:04.094Z,3.00
2018-06-02T14:08:32.345Z,5.53
2018-06-02T14:11:00.357Z,3.77
2018-06-02T14:13:28.679Z,7.23
2018-06-02T14:15:56.562Z,5.87
2018-06-02T14:18:25.550Z,3.50
2018-06-02T14:20:53.750Z,4.80
2018-06-02T14:23:22.702Z,7.90
2018-06-02T14:25:51.157Z,4.97
2018-06-02T14:28:19.413Z,6.33
2018-06-02T14:30:48.267Z,4.23
2018-06-02T14:33:16.343Z,7.20
2018-06-02T14:35:44.594Z,6.97
2018-06-02T14:38:12.907Z,5.10
2018-06-02T14:40:41.061Z,6.43
2018-06-02T14:43:09.865Z,3.60
2018-06-02T14:45:37.914Z,4.40
2018-06-02T14:48:06.677Z,3.27
2018-06-02T14:50:35.283Z,8.07
2018-06-02T14:53:03.350Z,5.60
2018-06-02T14:55:31.198Z,6.17
2018-06-02T14:57:59.101Z,7.47
2018-06-02T15:00:27.579Z,3.70
2018-06-02T15:02:55.722Z,2.70
2018-06-02T15:05:23.869Z,3.70
2018-06-02T15:07:51.900Z,5.47
2018-06-02T15:10:19.852Z,4.80
2018-06-02T15:12:48.094Z,4.37
2018-06-02T15:15:16.459Z,5.50
2018-06-02T15:17:44.447Z,4.07
2018-06-02T15:20:12.333Z,3.40
2018-06-02T15:22:40.530Z,5.93
2018-06-02T15:25:08.580Z,3.73
2018-06-02T15:27:36.884Z,5.40
2018-06-02T15:30:05.171Z,4.40
2018-06-02T15:32:34.481Z,10.10
2018-06-02T15:35:02.487Z,6.90
2018-06-02T15:37:30.340Z,5.67
2018-06-02T15:39:58.741Z,5.57
2018-06-02T15:42:26.806Z,5.60
2018-06-02T15:44:54.621Z,6.30
2018-06-02T15:47:22.895Z,4.53
2018-06-02T15:49:51.206Z,5.20
2018-06-02T15:52:19.237Z,4.27
2018-06-02T15:54:47.507Z,5.33
2018-06-02T15:57:15.316Z,3.70
2018-06-02T15:59:44.465Z,6.93
2018-06-02T16:02:12.896Z,3.70
2018-06-02T16:04:40.932Z,5.47
2018-06-02T16:07:09.049Z,6.87
2018-06-02T16:09:37.138Z,4.83
2018-06-02T16:12:06.045Z,3.33
2018-06-02T16:14:34.665Z,3.27
2018-06-02T16:17:02.509Z,3.83
2018-06-02T16:19:30.554Z,5.00
2018-06-02T16:21:58.891Z,5.13
2018-06-02T16:24:27.120Z,6.00
2018-06-02T16:26:55.139Z,3.17
2018-06-02T16:29:23.039Z,5.97
2018-06-02T16:31:51.233Z,4.53
2018-06-02T16:34:19.286Z,6.67
2018-06-02T16:36:47.323Z,6.77
2018-06-02T16:39:17.383Z,3.43
2018-06-02T16:41:45.397Z,3.23
2018-06-02T16:44:13.539Z,2.03
2018-06-02T16:46:41.763Z,5.80
2018-06-02T16:49:09.748Z,6.53
2018-06-02T16:51:38.602Z,4.17
2018-06-02T16:54:06.816Z,6.17
2018-06-02T16:56:34.702Z,3.10
2018-06-02T16:59:02.940Z,6.67
2018-06-02T17:01:30.935Z,4.20
2018-06-02T17:03:59.286Z,3.63
2018-06-02T17:06:27.241Z,2.57
2018-06-02T17:08:55.816Z,5.43
2018-06-02T17:11:24.720Z,4.23
2018-06-02T17:13:52.897Z,3.80
2018-06-02T17:16:21.154Z,4.00
2018-06-02T17:18:49.769Z,4.57
2018-06-02T17:21:17.589Z,4.60
2018-06-02T17:23:47.024Z,3.83
2018-06-02T17:26:14.816Z,5.00
2018-06-02T17:28:42.840Z,5.50
2018-06-02T17:31:10.819Z,4.67
2018-06-02T17:33:38.689Z,7.03
2018-06-02T17:36:06.573Z,5.73
2018-06-02T17:38:35.975Z,3.40
2018-06-02T17:41:04.291Z,3.60
2018-06-02T17:43:32.179Z,5.17
2018-06-02T17:46:00.210Z,4.60
2018-06-02T17:48:28.556Z,5.67
2018-06-02T17:50:56.916Z,5.63
2018-06-02T17:53:26.031Z,4.87
2018-06-02T17:55:54.050Z,3.67
2018-06-02T17:58:22.939Z,4.77
2018-06-02T18:00:51.086Z,8.37
2018-06-02T18:03:20.055Z,4.60
2018-06-02T18:05:48.230Z,4.83
2018-06-02T18:08:16.096Z,4.20
2018-06-02T18:10:44.259Z,5.40
2018-06-02T18:13:12.070Z,3.93
2018-06-02T18:15:40.721Z,2.90
2018-06-02T18:18:08.911Z,3.00
2018-06-02T18:20:37.500Z,3.53
2018-06-02T18:23:05.525Z,3.20
2018-06-02T18:25:33.625Z,5.47
2018-06-02T18:28:01.890Z,4.20
2018-06-02T18:30:29.735Z,2.13
2018-06-02T18:32:57.737Z,3.23
2018-06-02T18:35:25.801Z,5.67
2018-06-02T18:37:53.968Z,3.90
2018-06-02T18:40:22.655Z,2.10
2018-06-02T18:42:51.453Z,3.70
2018-06-02T18:45:19.634Z,5.50
2018-06-02T18:47:47.794Z,7.93
2018-06-02T18:50:15.940Z,3.97
2018-06-02T18:52:43.836Z,3.60
2018-06-02T18:55:11.878Z,3.60
2018-06-02T18:57:40.691Z,2.67
2018-06-02T19:00:09.592Z,3.40
2018-06-02T19:02:37.425Z,2.43
2018-06-02T19:05:05.517Z,2.63
2018-06-02T19:07:33.467Z,4.20
2018-06-02T19:10:02.255Z,3.50
2018-06-02T19:12:31.886Z,4.03
2018-06-02T19:15:00.566Z,3.93
2018-06-02T19:17:28.484Z,13.13
2018-06-02T19:19:56.713Z,3.87
2018-06-02T19:22:26.619Z,3.93
2018-06-02T19:24:56.309Z,1.60
2018-06-02T19:27:24.542Z,2.73
2018-06-02T19:29:52.891Z,2.87
2018-06-02T19:32:21.517Z,3.70
2018-06-02T19:34:49.395Z,4.30
2018-06-02T19:37:18.334Z,2.60
2018-06-02T19:39:46.652Z,6.90
2018-06-02T19:42:15.501Z,2.43
2018-06-02T19:44:43.672Z,2.83
2018-06-02T19:47:12.461Z,4.67
2018-06-02T19:49:40.468Z,6.57
2018-06-02T19:52:08.608Z,3.13
2018-06-02T19:54:36.675Z,2.10
2018-06-02T19:57:04.952Z,2.47
2018-06-02T19:59:33.250Z,3.00
2018-06-02T20:02:01.070Z,2.67
2018-06-02T20:07:23.034Z,4.43
2018-06-02T20:09:50.889Z,3.33
2018-06-02T20:12:18.722Z,7.43
2018-06-02T20:14:47.028Z,4.10
2018-06-02T20:17:14.911Z,2.70
2018-06-02T20:19:42.764Z,3.00
2018-06-02T20:22:11.085Z,3.33
2018-06-02T20:24:39.026Z,3.43
2018-06-02T20:27:06.892Z,2.50
2018-06-02T20:29:35.859Z,2.57
2018-06-02T20:32:03.723Z,3.57
2018-06-02T20:34:32.028Z,4.17
2018-06-02T20:37:00.328Z,2.10
2018-06-02T20:39:28.174Z,3.23
2018-06-02T20:41:56.241Z,3.03
2018-06-02T20:44:24.520Z,2.37
2018-06-02T20:46:52.377Z,4.10
2018-06-02T20:49:20.185Z,3.77
2018-06-02T20:51:48.525Z,6.67
2018-06-02T20:54:16.323Z,8.63
2018-06-02T20:56:44.236Z,2.67
2018-06-02T20:59:12.532Z,4.77
2018-06-02T21:01:40.810Z,3.33
2018-06-02T21:04:09.964Z,2.13
2018-06-02T21:06:39.076Z,5.60
2018-06-02T21:09:07.385Z,5.50
2018-06-02T21:11:35.555Z,3.03
2018-06-02T21:14:03.829Z,3.47
2018-06-02T21:16:32.159Z,3.43
2018-06-02T21:19:00.074Z,5.13
2018-06-02T21:21:28.402Z,2.70
2018-06-02T21:23:56.449Z,6.07
2018-06-02T21:26:24.319Z,10.10
2018-06-02T21:28:52.719Z,4.03
2018-06-02T21:31:20.958Z,5.10
2018-06-02T21:33:49.717Z,5.23
2018-06-02T21:36:17.902Z,4.10
2018-06-02T21:38:45.977Z,4.43
2018-06-02T21:41:13.747Z,4.83
2018-06-02T21:43:42.018Z,6.37
2018-06-02T21:46:11.215Z,6.53
2018-06-02T21:48:39.081Z,4.77
2018-06-02T21:51:07.747Z,6.87
2018-06-02T21:53:35.939Z,2.77
2018-06-02T21:56:03.732Z,4.33
2018-06-02T21:58:31.976Z,4.33
2018-06-02T22:01:00.610Z,17.83
2018-06-02T22:03:28.742Z,4.23
2018-06-02T22:05:56.907Z,11.70
2018-06-02T22:08:24.772Z,3.53
2018-06-02T22:10:52.843Z,4.37
2018-06-02T22:13:20.914Z,4.33
2018-06-02T22:15:49.089Z,3.20
2018-06-02T22:18:17.367Z,5.37
2018-06-02T22:20:45.242Z,3.67
2018-06-02T22:23:13.208Z,5.10
2018-06-02T22:25:41.276Z,5.67
2018-06-02T22:28:09.452Z,8.20
2018-06-02T22:30:37.318Z,3.67
2018-06-02T22:33:05.513Z,5.23
2018-06-02T22:35:35.343Z,4.47
2018-06-02T22:38:03.209Z,2.60
2018-06-02T22:40:31.248Z,2.63
2018-06-02T22:42:59.259Z,4.43
2018-06-02T22:45:27.390Z,7.40
2018-06-02T22:47:56.047Z,5.43
2018-06-02T22:50:24.133Z,5.03
2018-06-02T22:52:52.625Z,6.27
2018-06-02T22:55:25.991Z,8.50
2018-06-02T22:57:54.507Z,6.53
2018-06-02T23:00:22.380Z,5.50
2018-06-02T23:02:51.624Z,5.60
2018-06-02T23:05:19.559Z,8.03
2018-06-02T23:07:47.465Z,4.57
2018-06-02T23:10:16.074Z,4.67
2018-06-02T23:12:43.922Z,5.03
2018-06-02T23:15:11.705Z,3.53
2018-06-02T23:17:40.035Z,3.97
2018-06-02T23:20:07.948Z,4.53
2018-06-02T23:22:40.029Z,3.90
2018-06-02T23:25:08.326Z,3.83
2018-06-02T23:27:36.155Z,5.20
2018-06-02T23:30:04.029Z,5.80
2018-06-02T23:32:32.327Z,6.80
2018-06-02T23:35:00.269Z,4.83
2018-06-02T23:37:28.374Z,5.00
2018-06-02T23:39:56.410Z,4.80
2018-06-02T23:42:24.242Z,4.07
2018-06-02T23:44:52.143Z,4.23
2018-06-02T23:47:20.213Z,4.33
2018-06-02T23:49:48.001Z,3.67
2018-06-02T23:52:16.151Z,6.70
2018-06-02T23:54:44.327Z,4.37
2018-06-02T23:57:12.293Z,4.10
2018-06-02T23:59:40.182Z,3.93
